createdAt,value
2023-02-22T00:04:35.562Z,6.85
2023-02-22T00:06:38.649Z,6.81
2023-02-22T00:08:41.723Z,6.78
2023-02-22T00:10:45.453Z,6.80
2023-02-22T00:12:49.881Z,6.80
2023-02-22T00:14:53.150Z,6.76
2023-02-22T00:16:59.349Z,6.75
2023-02-22T00:19:02.374Z,6.72
2023-02-22T00:21:10.622Z,6.70
2023-02-22T00:23:18.997Z,6.71
2023-02-22T00:25:23.647Z,6.72
2023-02-22T00:27:26.889Z,6.71
2023-02-22T00:29:29.944Z,6.68
2023-02-22T00:31:38.082Z,6.66
2023-02-22T00:33:41.682Z,6.63
2023-02-22T00:35:46.680Z,6.57
2023-02-22T00:37:52.121Z,6.47
2023-02-22T00:39:57.652Z,6.41
2023-02-22T00:42:00.773Z,6.35
2023-02-22T00:44:05.928Z,6.32
2023-02-22T00:46:09.144Z,6.31
2023-02-22T00:48:12.497Z,6.33
2023-02-22T00:50:15.931Z,6.35
2023-02-22T00:52:19.023Z,6.37
2023-02-22T00:54:23.545Z,6.35
2023-02-22T00:56:26.754Z,6.37
2023-02-22T00:58:29.925Z,6.37
2023-02-22T01:00:36.580Z,6.40
2023-02-22T01:02:39.853Z,6.39
2023-02-22T01:04:43.408Z,6.39
2023-02-22T01:06:48.090Z,6.37
2023-02-22T01:08:51.115Z,6.33
2023-02-22T01:10:56.485Z,6.28
2023-02-22T01:13:01.152Z,6.23
2023-02-22T01:15:05.748Z,6.16
2023-02-22T01:17:08.828Z,6.11
2023-02-22T01:19:12.918Z,6.10
2023-02-22T01:21:16.738Z,6.09
2023-02-22T01:23:19.954Z,6.09
2023-02-22T01:25:25.896Z,6.08
2023-02-22T01:27:30.610Z,6.09
2023-02-22T01:29:33.741Z,6.06
2023-02-22T01:31:36.843Z,6.04
2023-02-22T01:33:42.145Z,6.03
2023-02-22T01:35:46.516Z,6.01
2023-02-22T01:37:49.678Z,6.00
2023-02-22T01:39:53.974Z,5.97
2023-02-22T01:41:58.178Z,5.96
2023-02-22T01:44:21.173Z,5.96
2023-02-22T01:46:25.516Z,5.93
2023-02-22T01:48:34.919Z,5.92
2023-02-22T01:50:40.666Z,5.94
2023-02-22T01:52:43.775Z,5.93
2023-02-22T01:54:48.861Z,5.92
2023-02-22T01:57:00.171Z,5.91
2023-02-22T01:59:06.822Z,5.90
2023-02-22T02:01:11.913Z,5.90
2023-02-22T02:08:49.797Z,5.84
2023-02-22T02:10:54.746Z,5.79
2023-02-22T02:12:58.323Z,5.77
2023-02-22T02:15:20.200Z,5.74
2023-02-22T02:17:24.889Z,5.73
2023-02-22T02:19:36.281Z,5.69
2023-02-22T02:22:01.052Z,5.69
2023-02-22T02:24:24.958Z,5.69
2023-02-22T02:26:46.741Z,5.70
2023-02-22T02:29:12.615Z,5.67
2023-02-22T02:31:28.765Z,5.69
2023-02-22T02:33:35.542Z,5.68
2023-02-22T02:35:49.351Z,5.66
2023-02-22T02:37:58.220Z,5.65
2023-02-22T02:40:11.496Z,5.63
2023-02-22T02:42:18.399Z,5.63
2023-02-22T02:44:24.659Z,5.64
2023-02-22T02:46:33.067Z,5.65
2023-02-22T02:48:40.437Z,5.65
2023-02-22T02:50:46.197Z,5.64
2023-02-22T02:52:49.732Z,5.64
2023-02-22T02:54:53.516Z,5.64
2023-02-22T02:56:57.771Z,5.65
2023-02-22T02:59:01.531Z,5.64
2023-02-22T03:01:07.780Z,5.66
2023-02-22T03:03:58.848Z,5.65
2023-02-22T03:06:14.663Z,5.67
2023-02-22T03:08:24.496Z,5.67
2023-02-22T03:10:44.662Z,5.66
2023-02-22T03:12:58.452Z,5.64
2023-02-22T03:15:09.383Z,5.63
2023-02-22T03:17:19.163Z,5.64
2023-02-22T03:19:29.151Z,5.60
2023-02-22T03:21:34.643Z,5.60
2023-02-22T03:23:42.059Z,5.61
2023-02-22T03:25:49.750Z,5.59
2023-02-22T03:27:55.122Z,5.59
2023-02-22T03:30:02.062Z,5.56
2023-02-22T03:32:11.294Z,5.54
2023-02-22T03:34:18.162Z,5.54
2023-02-22T03:36:25.914Z,5.52
2023-02-22T03:38:33.410Z,5.50
2023-02-22T03:40:39.666Z,5.53
2023-02-22T03:42:46.232Z,5.52
2023-02-22T03:44:51.380Z,5.53
2023-02-22T03:46:56.785Z,5.54
2023-02-22T03:49:02.027Z,5.55
2023-02-22T03:51:09.327Z,5.54
2023-02-22T03:53:13.960Z,5.54
2023-02-22T03:55:18.777Z,5.53
2023-02-22T03:57:25.487Z,5.54
2023-02-22T03:59:40.953Z,5.53
2023-02-22T04:01:44.092Z,5.53
2023-02-22T04:03:47.380Z,5.51
2023-02-22T04:05:51.657Z,5.49
2023-02-22T04:07:57.548Z,5.49
2023-02-22T04:10:02.791Z,5.49
2023-02-22T04:12:08.479Z,5.49
2023-02-22T04:14:28.173Z,5.49
2023-02-22T04:16:33.332Z,5.49
2023-02-22T04:18:36.606Z,5.48
2023-02-22T04:20:39.808Z,5.50
2023-02-22T04:22:49.651Z,5.47
2023-02-22T04:24:53.728Z,5.45
2023-02-22T04:26:58.660Z,5.45
2023-02-22T04:29:02.042Z,5.42
2023-02-22T04:31:11.749Z,5.39
2023-02-22T04:33:16.269Z,5.38
2023-02-22T04:35:19.496Z,5.38
2023-02-22T04:37:22.593Z,5.39
2023-02-22T04:39:25.915Z,5.39
2023-02-22T04:41:29.226Z,5.39
2023-02-22T04:43:33.674Z,5.40
2023-02-22T04:45:47.628Z,5.40
2023-02-22T04:47:50.812Z,5.39
2023-02-22T04:49:54.258Z,5.39
2023-02-22T04:51:57.516Z,5.37
2023-02-22T04:54:07.566Z,5.34
2023-02-22T04:56:13.857Z,5.33
2023-02-22T04:58:16.977Z,5.33
2023-02-22T05:00:22.602Z,5.29
2023-02-22T05:02:27.663Z,5.26
2023-02-22T05:04:30.821Z,5.26
2023-02-22T05:06:34.004Z,5.25
2023-02-22T05:08:37.122Z,5.22
2023-02-22T05:10:40.233Z,5.21
2023-02-22T05:12:43.379Z,5.19
2023-02-22T05:14:46.582Z,5.18
2023-02-22T05:16:51.270Z,5.22
2023-02-22T05:18:54.404Z,5.22
2023-02-22T05:20:57.597Z,5.18
2023-02-22T05:23:02.338Z,5.17
2023-02-22T05:25:05.981Z,5.17
2023-02-22T05:27:09.208Z,5.16
2023-02-22T05:29:12.935Z,5.15
2023-02-22T05:31:16.277Z,5.16
2023-02-22T05:33:20.945Z,5.16
2023-02-22T05:35:24.747Z,5.15
2023-02-22T05:37:28.022Z,5.15
2023-02-22T05:39:31.172Z,5.18
2023-02-22T05:41:34.236Z,5.19
2023-02-22T05:43:37.289Z,5.17
2023-02-22T05:45:40.411Z,5.17
2023-02-22T05:47:43.728Z,5.15
2023-02-22T05:49:48.515Z,5.16
2023-02-22T05:51:51.829Z,5.18
2023-02-22T05:53:54.935Z,5.20
2023-02-22T05:55:58.095Z,5.18
2023-02-22T05:58:01.995Z,5.15
2023-02-22T06:00:06.906Z,5.18
2023-02-22T06:02:16.135Z,5.16
2023-02-22T06:04:20.145Z,5.14
2023-02-22T06:06:24.586Z,5.14
2023-02-22T06:08:27.726Z,5.15
2023-02-22T06:10:31.212Z,5.15
2023-02-22T06:12:34.261Z,5.14
2023-02-22T06:14:37.657Z,5.13
2023-02-22T06:16:40.886Z,5.13
2023-02-22T06:18:43.923Z,5.14
2023-02-22T06:20:47.251Z,5.15
2023-02-22T06:22:52.523Z,5.15
2023-02-22T06:24:55.728Z,5.16
2023-02-22T06:27:00.536Z,5.15
2023-02-22T06:29:05.992Z,5.15
2023-02-22T06:31:09.239Z,5.14
2023-02-22T06:33:12.990Z,5.14
2023-02-22T06:35:16.149Z,5.16
2023-02-22T06:37:19.287Z,5.20
2023-02-22T06:39:25.561Z,5.29
2023-02-22T06:41:28.618Z,5.37
2023-02-22T06:43:31.747Z,5.45
2023-02-22T06:45:34.900Z,5.57
2023-02-22T06:47:41.228Z,5.66
2023-02-22T06:49:44.265Z,5.75
2023-02-22T06:51:47.848Z,5.84
2023-02-22T06:53:50.987Z,5.87
2023-02-22T06:55:56.202Z,5.94
2023-02-22T06:57:59.501Z,5.97
2023-02-22T07:00:03.327Z,5.99
2023-02-22T07:02:06.852Z,6.04
2023-02-22T07:04:10.331Z,6.06
2023-02-22T07:06:13.511Z,6.11
2023-02-22T07:08:16.587Z,6.19
2023-02-22T07:10:22.622Z,6.27
2023-02-22T07:12:27.476Z,6.35
2023-02-22T07:14:30.559Z,6.42
2023-02-22T07:16:34.558Z,6.53
2023-02-22T07:18:38.672Z,6.64
2023-02-22T07:20:41.900Z,6.79
2023-02-22T07:22:44.971Z,6.90
2023-02-22T07:24:48.515Z,6.88
2023-02-22T07:26:51.582Z,6.95
2023-02-22T07:28:55.959Z,7.04
2023-02-22T07:30:59.089Z,7.17
2023-02-22T07:33:04.423Z,7.28
2023-02-22T07:35:08.374Z,7.38
2023-02-22T07:37:11.440Z,7.50
2023-02-22T07:39:14.539Z,7.63
2023-02-22T07:41:18.029Z,7.77
2023-02-22T07:43:22.850Z,7.90
2023-02-22T07:45:30.085Z,7.93
2023-02-22T07:47:33.231Z,8.00
2023-02-22T07:49:36.343Z,8.12
2023-02-22T07:51:39.416Z,8.23
2023-02-22T07:53:42.496Z,8.36
2023-02-22T07:55:45.899Z,8.47
2023-02-22T07:57:49.959Z,8.52
2023-02-22T07:59:53.005Z,8.52
2023-02-22T08:01:57.438Z,8.59
2023-02-22T08:04:00.682Z,8.73
2023-02-22T08:06:04.209Z,8.90
2023-02-22T08:08:08.538Z,9.04
2023-02-22T08:10:12.171Z,9.18
2023-02-22T08:12:16.510Z,9.34
2023-02-22T08:14:19.700Z,9.49
2023-02-22T08:16:22.748Z,9.62
2023-02-22T08:18:27.484Z,9.72
2023-02-22T08:20:31.103Z,9.84
2023-02-22T08:22:34.429Z,9.84
2023-02-22T08:24:37.465Z,9.76
2023-02-22T08:26:45.837Z,9.65
2023-02-22T08:28:49.895Z,9.58
2023-02-22T08:30:53.504Z,9.52
2023-02-22T08:32:56.777Z,9.48
2023-02-22T08:35:01.394Z,9.52
2023-02-22T08:37:04.501Z,9.54
2023-02-22T08:39:07.490Z,9.53
2023-02-22T08:41:10.661Z,9.58
2023-02-22T08:43:14.505Z,9.64
2023-02-22T08:45:17.802Z,9.67
2023-02-22T08:47:20.811Z,9.72
2023-02-22T08:49:24.387Z,9.80
2023-02-22T08:51:28.864Z,9.95
2023-02-22T08:53:32.924Z,10.18
2023-02-22T08:55:37.343Z,10.43
2023-02-22T08:57:40.425Z,10.70
2023-02-22T08:59:43.772Z,10.86
2023-02-22T09:01:47.073Z,11.04
2023-02-22T09:03:50.958Z,11.17
2023-02-22T09:05:54.139Z,11.33
2023-02-22T09:07:58.733Z,11.44
2023-02-22T09:10:01.875Z,11.50
2023-02-22T09:12:05.696Z,11.54
2023-02-22T09:14:08.787Z,11.64
2023-02-22T09:16:12.185Z,11.78
2023-02-22T09:18:18.048Z,11.79
2023-02-22T09:20:23.525Z,11.89
2023-02-22T09:22:26.729Z,12.03
2023-02-22T09:24:31.364Z,12.29
2023-02-22T09:26:34.461Z,12.55
2023-02-22T09:28:37.601Z,12.66
2023-02-22T09:30:41.273Z,12.63
2023-02-22T09:32:44.519Z,12.61
2023-02-22T09:34:48.133Z,12.72
2023-02-22T09:36:51.286Z,12.70
2023-02-22T09:38:54.335Z,12.75
2023-02-22T09:41:09.273Z,12.93
2023-02-22T09:43:25.760Z,12.98
2023-02-22T09:45:32.540Z,13.07
2023-02-22T09:47:40.256Z,13.15
2023-02-22T09:49:47.315Z,13.11
2023-02-22T09:51:54.020Z,13.14
2023-02-22T09:54:00.381Z,13.18
2023-02-22T09:56:07.183Z,13.25
2023-02-22T09:58:18.123Z,13.31
2023-02-22T10:00:22.642Z,13.31
2023-02-22T10:02:29.099Z,13.29
2023-02-22T10:04:42.481Z,13.25
2023-02-22T10:06:58.889Z,13.25
2023-02-22T10:09:07.804Z,13.26
2023-02-22T10:11:18.513Z,13.26
2023-02-22T10:13:29.367Z,13.42
2023-02-22T10:15:41.131Z,13.52
2023-02-22T10:17:50.629Z,13.61
2023-02-22T10:20:04.892Z,13.65
2023-02-22T10:22:40.836Z,13.85
2023-02-22T10:24:51.455Z,14.07
2023-02-22T10:26:57.123Z,14.25
2023-02-22T10:29:03.128Z,14.33
2023-02-22T10:31:09.228Z,14.37
2023-02-22T10:33:17.029Z,14.41
2023-02-22T10:35:23.626Z,14.44
2023-02-22T10:37:29.877Z,14.50
2023-02-22T10:39:34.523Z,14.57
2023-02-22T10:41:40.254Z,14.58
2023-02-22T10:43:45.357Z,14.62
2023-02-22T10:45:48.580Z,14.65
2023-02-22T10:47:52.663Z,14.66
2023-02-22T10:49:58.577Z,14.74
2023-02-22T10:52:02.845Z,14.78
2023-02-22T10:54:24.111Z,14.76
2023-02-22T10:56:28.751Z,14.85
2023-02-22T10:58:41.825Z,14.90
2023-02-22T11:00:46.760Z,14.93
2023-02-22T11:02:53.451Z,14.97
2023-02-22T11:04:58.677Z,14.97
2023-02-22T11:07:10.040Z,14.99
2023-02-22T11:09:15.539Z,15.01
2023-02-22T11:11:26.164Z,14.96
2023-02-22T11:13:31.094Z,14.95
2023-02-22T11:15:35.966Z,14.97
2023-02-22T11:17:41.760Z,14.99
2023-02-22T11:19:47.962Z,14.99
2023-02-22T11:21:53.051Z,15.06
2023-02-22T11:24:03.816Z,15.14
2023-02-22T11:26:10.249Z,15.24
2023-02-22T11:28:17.619Z,15.27
2023-02-22T11:30:29.065Z,15.27
2023-02-22T11:32:32.340Z,15.27
2023-02-22T11:34:38.942Z,15.28
2023-02-22T11:36:44.010Z,15.29
2023-02-22T11:38:56.160Z,15.29
2023-02-22T11:41:17.312Z,15.29
2023-02-22T11:43:21.837Z,15.37
2023-02-22T11:45:24.936Z,15.44
2023-02-22T11:47:28.097Z,15.48
2023-02-22T11:49:35.149Z,15.54
2023-02-22T11:51:52.489Z,15.59
2023-02-22T11:54:10.566Z,15.59
2023-02-22T11:56:20.688Z,15.62
2023-02-22T11:58:36.720Z,15.62
2023-02-22T12:00:47.403Z,15.62
2023-02-22T12:03:16.483Z,15.64
2023-02-22T12:05:26.434Z,15.58
2023-02-22T12:07:52.563Z,15.53
2023-02-22T12:10:02.628Z,15.50
2023-02-22T12:12:13.838Z,15.50
2023-02-22T12:14:22.953Z,15.56
2023-02-22T12:16:33.246Z,15.62
2023-02-22T12:18:40.991Z,15.71
2023-02-22T12:20:47.678Z,15.78
2023-02-22T12:23:02.093Z,15.80
2023-02-22T12:25:10.121Z,15.78
2023-02-22T12:27:17.110Z,15.79
2023-02-22T12:29:27.720Z,15.72
2023-02-22T12:31:34.245Z,15.69
2023-02-22T12:33:45.269Z,15.70
2023-02-22T12:35:52.975Z,15.69
2023-02-22T12:38:05.460Z,15.67
2023-02-22T12:40:14.527Z,15.66
2023-02-22T12:42:19.573Z,15.69
2023-02-22T12:44:25.946Z,15.71
2023-02-22T12:46:32.357Z,15.76
2023-02-22T12:48:44.612Z,15.77
2023-02-22T12:50:49.140Z,15.79
2023-02-22T12:52:57.713Z,15.80
2023-02-22T12:55:06.220Z,15.82
2023-02-22T12:57:16.999Z,15.83
2023-02-22T12:59:22.781Z,15.83
2023-02-22T13:01:30.075Z,15.83
2023-02-22T13:03:37.148Z,15.83
2023-02-22T13:05:41.450Z,15.80
2023-02-22T13:07:50.201Z,15.79
2023-02-22T13:10:06.718Z,15.82
2023-02-22T13:12:16.260Z,15.83
2023-02-22T13:14:37.853Z,15.78
2023-02-22T13:16:52.552Z,15.78
2023-02-22T13:19:01.506Z,15.77
2023-02-22T13:21:06.809Z,15.77
2023-02-22T13:23:14.849Z,15.79
2023-02-22T13:25:22.064Z,15.78
2023-02-22T13:27:28.323Z,15.77
2023-02-22T13:29:33.879Z,15.72
2023-02-22T13:31:51.260Z,15.70
2023-02-22T13:34:16.442Z,15.68
2023-02-22T13:36:38.036Z,15.67
2023-02-22T13:39:15.407Z,15.65
2023-02-22T13:41:37.628Z,15.61
2023-02-22T13:44:01.844Z,15.60
2023-02-22T13:46:25.949Z,15.63
2023-02-22T13:48:54.073Z,15.67
2023-02-22T13:51:09.695Z,15.69
2023-02-22T13:53:15.908Z,15.71
2023-02-22T13:55:21.820Z,15.74
2023-02-22T13:57:28.214Z,15.76
2023-02-22T13:59:36.054Z,15.78
2023-02-22T14:01:45.711Z,15.79
2023-02-22T14:03:48.830Z,15.81
2023-02-22T14:05:53.000Z,15.83
2023-02-22T14:07:56.683Z,15.83
2023-02-22T14:10:02.143Z,15.82
2023-02-22T14:12:05.642Z,15.81
2023-02-22T14:14:21.539Z,15.78
2023-02-22T14:16:26.785Z,15.80
2023-02-22T14:18:30.980Z,15.85
2023-02-22T14:20:36.803Z,15.88
2023-02-22T14:22:40.088Z,15.92
2023-02-22T14:24:45.339Z,15.91
2023-02-22T14:27:00.805Z,15.93
2023-02-22T14:29:17.829Z,15.98
2023-02-22T14:31:35.530Z,16.02
2023-02-22T14:34:04.185Z,16.05
2023-02-22T14:36:07.830Z,16.10
2023-02-22T14:38:19.133Z,16.14
2023-02-22T14:40:25.913Z,16.16
2023-02-22T14:42:31.837Z,16.14
2023-02-22T14:44:40.704Z,16.13
2023-02-22T14:46:50.033Z,16.11
2023-02-22T14:48:56.070Z,16.11
2023-02-22T14:51:11.931Z,16.08
2023-02-22T14:53:27.249Z,16.04
2023-02-22T14:55:32.487Z,16.01
2023-02-22T14:57:46.182Z,15.99
2023-02-22T15:00:00.595Z,16.00
2023-02-22T15:02:11.823Z,15.98
2023-02-22T15:04:20.017Z,15.94
2023-02-22T15:06:25.790Z,15.91
2023-02-22T15:08:29.207Z,15.86
2023-02-22T15:10:42.803Z,15.83
2023-02-22T15:12:53.624Z,15.78
2023-02-22T15:17:26.061Z,15.73
2023-02-22T15:19:30.676Z,15.70
2023-02-22T15:21:34.091Z,15.66
2023-02-22T15:23:45.375Z,15.59
2023-02-22T15:25:49.846Z,15.55
2023-02-22T15:27:53.177Z,15.45
2023-02-22T15:29:59.698Z,15.40
2023-02-22T15:32:02.926Z,15.37
2023-02-22T15:34:24.580Z,15.31
2023-02-22T15:36:31.052Z,15.25
2023-02-22T15:38:34.479Z,15.18
2023-02-22T15:40:42.857Z,15.15
2023-02-22T15:42:50.038Z,15.11
2023-02-22T15:44:55.344Z,15.11
2023-02-22T15:46:58.522Z,15.08
2023-02-22T15:49:19.265Z,15.05
2023-02-22T15:51:23.828Z,15.00
2023-02-22T15:53:28.986Z,14.98
2023-02-22T15:55:34.140Z,14.96
2023-02-22T15:57:38.452Z,14.91
2023-02-22T15:59:45.468Z,14.85
2023-02-22T16:01:51.408Z,14.78
2023-02-22T16:03:56.681Z,14.73
2023-02-22T16:06:00.812Z,14.69
2023-02-22T16:08:12.594Z,14.66
2023-02-22T16:10:22.801Z,14.64
2023-02-22T16:12:28.013Z,14.59
2023-02-22T16:14:32.816Z,14.56
2023-02-22T16:16:41.619Z,14.55
2023-02-22T16:18:44.945Z,14.51
2023-02-22T16:20:59.354Z,14.47
2023-02-22T16:23:25.345Z,14.43
2023-02-22T16:25:35.427Z,14.40
2023-02-22T16:27:47.384Z,14.36
2023-02-22T16:30:23.244Z,14.33
2023-02-22T16:32:27.430Z,14.30
2023-02-22T16:34:30.753Z,14.27
2023-02-22T16:36:41.956Z,14.23
2023-02-22T16:38:48.353Z,14.19
2023-02-22T16:40:55.092Z,14.17
2023-02-22T16:42:58.178Z,14.13
2023-02-22T16:45:01.386Z,14.09
2023-02-22T16:47:04.506Z,14.05
2023-02-22T16:49:08.009Z,14.01
2023-02-22T16:51:17.018Z,13.99
2023-02-22T16:53:22.360Z,13.94
2023-02-22T16:55:27.566Z,13.87
2023-02-22T16:57:32.761Z,13.84
2023-02-22T16:59:38.500Z,13.81
2023-02-22T17:01:41.850Z,13.80
2023-02-22T17:03:45.131Z,13.77
2023-02-22T17:05:48.554Z,13.75
2023-02-22T17:07:51.632Z,13.71
2023-02-22T17:09:58.088Z,13.66
2023-02-22T17:12:02.870Z,13.61
2023-02-22T17:14:06.570Z,13.58
2023-02-22T17:16:14.805Z,13.54
2023-02-22T17:18:22.498Z,13.52
2023-02-22T17:20:30.927Z,13.50
2023-02-22T17:22:34.007Z,13.41
2023-02-22T17:24:39.185Z,13.30
2023-02-22T17:26:42.461Z,13.21
2023-02-22T17:28:47.060Z,13.15
2023-02-22T17:30:51.515Z,13.10
2023-02-22T17:32:56.081Z,13.09
2023-02-22T17:34:59.343Z,13.05
2023-02-22T17:37:02.390Z,12.93
2023-02-22T17:39:06.374Z,12.79
2023-02-22T17:41:09.594Z,12.67
2023-02-22T17:43:12.711Z,12.60
2023-02-22T17:45:17.196Z,12.58
2023-02-22T17:47:20.358Z,12.57
2023-02-22T17:49:23.453Z,12.54
2023-02-22T17:51:26.806Z,12.47
2023-02-22T17:53:30.005Z,12.47
2023-02-22T17:55:34.239Z,12.48
2023-02-22T17:57:39.824Z,12.52
2023-02-22T17:59:43.207Z,12.55
2023-02-22T18:01:48.334Z,12.60
2023-02-22T18:03:51.688Z,12.59
2023-02-22T18:05:57.543Z,12.58
2023-02-22T18:08:01.181Z,12.57
2023-02-22T18:10:05.531Z,12.58
2023-02-22T18:12:08.685Z,12.60
2023-02-22T18:14:12.360Z,12.59
2023-02-22T18:16:16.273Z,12.57
2023-02-22T18:18:22.212Z,12.54
2023-02-22T18:20:31.146Z,12.46
2023-02-22T18:22:34.326Z,12.37
2023-02-22T18:24:37.437Z,12.32
2023-02-22T18:26:40.723Z,12.29
2023-02-22T18:28:43.987Z,12.28
2023-02-22T18:30:47.401Z,12.26
2023-02-22T18:32:50.366Z,12.26
2023-02-22T18:34:55.427Z,12.27
2023-02-22T18:36:58.672Z,12.26
2023-02-22T18:39:04.436Z,12.21
2023-02-22T18:41:07.843Z,12.12
2023-02-22T18:43:10.972Z,12.10
2023-02-22T18:45:14.913Z,12.06
2023-02-22T18:47:18.006Z,12.05
2023-02-22T18:49:21.303Z,12.01
2023-02-22T18:51:26.790Z,11.97
2023-02-22T18:53:30.171Z,11.95
2023-02-22T18:55:33.292Z,11.95
2023-02-22T18:57:36.710Z,11.96
2023-02-22T18:59:40.058Z,11.96
2023-02-22T19:01:48.826Z,11.96
2023-02-22T19:03:53.029Z,11.94
2023-02-22T19:05:56.243Z,11.94
2023-02-22T19:08:00.961Z,11.94
2023-02-22T19:10:04.186Z,11.92
2023-02-22T19:12:07.952Z,11.92
2023-02-22T19:14:11.270Z,11.92
2023-02-22T19:16:16.268Z,11.94
2023-02-22T19:18:20.663Z,11.99
2023-02-22T19:20:25.671Z,12.04
2023-02-22T19:22:32.746Z,12.06
2023-02-22T19:24:39.721Z,12.03
2023-02-22T19:26:50.353Z,11.99
2023-02-22T19:28:55.495Z,11.96
2023-02-22T19:30:58.751Z,11.93
2023-02-22T19:33:04.648Z,11.90
2023-02-22T19:35:08.438Z,11.87
2023-02-22T19:37:13.232Z,11.87
2023-02-22T19:39:17.644Z,11.86
2023-02-22T19:41:24.072Z,11.88
2023-02-22T19:43:28.581Z,11.88
2023-02-22T19:45:32.112Z,11.92
2023-02-22T19:47:35.477Z,11.93
2023-02-22T19:49:41.327Z,11.88
2023-02-22T19:51:44.927Z,11.82
2023-02-22T19:53:48.261Z,11.78
2023-02-22T19:55:53.349Z,11.75
2023-02-22T19:57:58.794Z,11.73
2023-02-22T20:00:11.092Z,11.71
2023-02-22T20:02:20.586Z,11.68
2023-02-22T20:04:24.612Z,11.64
2023-02-22T20:06:36.404Z,11.64
2023-02-22T20:08:43.618Z,11.62
2023-02-22T20:10:53.277Z,11.61
2023-02-22T20:13:02.340Z,11.63
2023-02-22T20:15:06.346Z,11.63
2023-02-22T20:17:11.295Z,11.63
2023-02-22T20:19:14.627Z,11.60
2023-02-22T20:21:22.432Z,11.60
2023-02-22T20:23:26.311Z,11.64
2023-02-22T20:25:29.554Z,11.63
2023-02-22T20:27:32.955Z,11.64
2023-02-22T20:29:37.877Z,11.64
2023-02-22T20:31:43.089Z,11.59
2023-02-22T20:33:55.297Z,11.60
2023-02-22T20:36:01.399Z,11.60
2023-02-22T20:38:06.080Z,11.60
2023-02-22T20:40:11.114Z,11.60
2023-02-22T20:42:15.966Z,11.62
2023-02-22T20:44:20.318Z,11.61
2023-02-22T20:46:31.583Z,11.60
2023-02-22T20:48:35.942Z,11.59
2023-02-22T20:50:39.655Z,11.56
2023-02-22T20:52:43.146Z,11.55
2023-02-22T20:54:46.370Z,11.56
2023-02-22T20:56:50.721Z,11.54
2023-02-22T20:58:57.476Z,11.53
2023-02-22T21:01:08.393Z,11.49
2023-02-22T21:03:15.203Z,11.48
2023-02-22T21:05:19.022Z,11.45
2023-02-22T21:07:23.205Z,11.44
2023-02-22T21:09:26.912Z,11.43
2023-02-22T21:11:31.654Z,11.38
2023-02-22T21:13:35.707Z,11.35
2023-02-22T21:15:44.472Z,11.29
2023-02-22T21:17:50.341Z,11.25
2023-02-22T21:19:55.555Z,11.16
2023-02-22T21:22:01.828Z,11.05
2023-02-22T21:24:06.907Z,11.01
2023-02-22T21:26:15.676Z,11.03
2023-02-22T21:28:19.356Z,11.03
2023-02-22T21:30:23.742Z,11.03
2023-02-22T21:32:27.329Z,11.08
2023-02-22T21:34:30.937Z,11.09
2023-02-22T21:36:38.851Z,11.11
2023-02-22T21:38:43.275Z,11.10
2023-02-22T21:40:47.654Z,11.10
2023-02-22T21:42:51.016Z,11.07
2023-02-22T21:44:56.390Z,11.07
2023-02-22T21:47:00.227Z,11.07
2023-02-22T21:49:03.716Z,11.06
2023-02-22T21:51:14.000Z,11.05
2023-02-22T21:53:19.170Z,11.00
2023-02-22T21:55:22.452Z,10.97
2023-02-22T21:57:26.259Z,10.93
2023-02-22T21:59:29.560Z,10.86
2023-02-22T22:01:34.867Z,10.78
2023-02-22T22:03:38.580Z,10.71
2023-02-22T22:05:45.311Z,10.68
2023-02-22T22:07:48.962Z,10.67
2023-02-22T22:09:56.783Z,10.63
2023-02-22T22:12:03.049Z,10.58
2023-02-22T22:14:06.284Z,10.58
2023-02-22T22:16:12.018Z,10.61
2023-02-22T22:18:16.285Z,10.61
2023-02-22T22:20:22.462Z,10.64
2023-02-22T22:22:28.332Z,10.66
2023-02-22T22:24:32.077Z,10.69
2023-02-22T22:26:37.951Z,10.69
2023-02-22T22:28:42.547Z,10.73
2023-02-22T22:30:46.116Z,10.73
2023-02-22T22:32:49.862Z,10.71
2023-02-22T22:34:56.537Z,10.66
2023-02-22T22:37:00.402Z,10.61
2023-02-22T22:39:12.908Z,10.56
2023-02-22T22:41:18.836Z,10.55
2023-02-22T22:43:23.790Z,10.54
2023-02-22T22:45:27.004Z,10.51
2023-02-22T22:47:30.529Z,10.48
2023-02-22T22:49:40.362Z,10.48
2023-02-22T22:51:47.438Z,10.46
2023-02-22T22:53:51.953Z,10.44
2023-02-22T22:55:55.506Z,10.41
2023-02-22T22:57:58.984Z,10.41
2023-02-22T23:00:25.262Z,10.38
2023-02-22T23:02:30.618Z,10.36
2023-02-22T23:04:34.884Z,10.35
2023-02-22T23:06:42.731Z,10.31
2023-02-22T23:08:45.836Z,10.26
2023-02-22T23:10:49.024Z,10.24
2023-02-22T23:12:53.734Z,10.22
2023-02-22T23:14:58.429Z,10.21
2023-02-22T23:17:04.135Z,10.19
2023-02-22T23:19:09.148Z,10.19
2023-02-22T23:21:12.425Z,10.20
2023-02-22T23:23:15.668Z,10.20
2023-02-22T23:25:19.859Z,10.18
2023-02-22T23:27:23.857Z,10.17
2023-02-22T23:29:28.817Z,10.16
2023-02-22T23:31:36.903Z,10.17
2023-02-22T23:33:42.046Z,10.17
2023-02-22T23:35:48.921Z,10.16
2023-02-22T23:37:53.449Z,10.15
2023-02-22T23:39:57.967Z,10.14
2023-02-22T23:42:03.061Z,10.13
2023-02-22T23:44:08.460Z,10.07
2023-02-22T23:46:13.398Z,10.05
2023-02-22T23:48:20.545Z,10.04
2023-02-22T23:50:26.637Z,10.01
2023-02-22T23:52:29.880Z,10.00
2023-02-22T23:54:37.031Z,10.00
2023-02-22T23:56:44.994Z,10.01
2023-02-22T23:58:50.371Z,10.03
